< < Back
Terminal Aerodrome Forecast


Current Version              Previous Versions:   1  2  3  4  5  6  7  8  9  

Terminal Aerodrome Forecast

428
FTUS42 KMLB 292340
TAFDAB
TAF
KDAB 292340Z 3000/3024 11005KT P6SM SCT040 SCT100
     FM300600 21003KT P6SM FEW100 SCT250
     FM301400 24004KT P6SM SCT020 SCT100 SCT250
     FM301700 09008KT P6SM TS SCT040CB BKN250
     FM302200 14006KT P6SM VCSH SCT040 BKN120=



Latest METAR

596
SAUS80 KWBC 300300 RRA
MTRDAB
METAR KDAB 300253Z 21005KT 10SM -RA FEW040 SCT070 BKN100 BKN250 26/23
A3003 RMK AO2 RAB49 SLP167 FRQ LTGIC DSNT N CB DSNT N P0000
60000 T02560228 53018


USA.gov is the U.S. government's official web portal to all federal, state and local government web resources and services.